sensor_id;sensor_type;location;lat;lon;timestamp;P1;durP1;ratioP1;P2;durP2;ratioP2
62475;SDS011;50739;45.670;11.936;2023-07-20T00:04:24;7.30;;;4.78;;
62475;SDS011;50739;45.670;11.936;2023-07-20T00:09:28;10.85;;;5.30;;
62475;SDS011;50739;45.670;11.936;2023-07-20T00:14:30;7.28;;;5.00;;
62475;SDS011;50739;45.670;11.936;2023-07-20T00:19:33;9.13;;;5.40;;
62475;SDS011;50739;45.670;11.936;2023-07-20T00:24:37;9.50;;;5.25;;
62475;SDS011;50739;45.670;11.936;2023-07-20T00:29:39;9.03;;;5.50;;
62475;SDS011;50739;45.670;11.936;2023-07-20T00:34:41;11.30;;;5.95;;
62475;SDS011;50739;45.670;11.936;2023-07-20T00:39:45;11.10;;;6.22;;
62475;SDS011;50739;45.670;11.936;2023-07-20T00:44:47;11.25;;;6.70;;
62475;SDS011;50739;45.670;11.936;2023-07-20T00:49:50;10.43;;;6.40;;
62475;SDS011;50739;45.670;11.936;2023-07-20T00:54:54;9.13;;;6.60;;
62475;SDS011;50739;45.670;11.936;2023-07-20T00:59:57;10.43;;;6.63;;
62475;SDS011;50739;45.670;11.936;2023-07-20T01:05:00;11.18;;;7.30;;
62475;SDS011;50739;45.670;11.936;2023-07-20T01:10:07;12.38;;;6.90;;
62475;SDS011;50739;45.670;11.936;2023-07-20T01:15:14;10.47;;;6.87;;
62475;SDS011;50739;45.670;11.936;2023-07-20T01:20:16;9.05;;;6.63;;
62475;SDS011;50739;45.670;11.936;2023-07-20T01:25:24;11.70;;;6.77;;
62475;SDS011;50739;45.670;11.936;2023-07-20T01:36:05;9.60;;;6.30;;
62475;SDS011;50739;45.670;11.936;2023-07-20T01:41:08;10.57;;;5.73;;
62475;SDS011;50739;45.670;11.936;2023-07-20T01:46:12;10.65;;;6.43;;
62475;SDS011;50739;45.670;11.936;2023-07-20T01:51:16;13.82;;;6.50;;
62475;SDS011;50739;45.670;11.936;2023-07-20T01:56:18;12.43;;;6.90;;
62475;SDS011;50739;45.670;11.936;2023-07-20T02:01:20;10.23;;;6.30;;
62475;SDS011;50739;45.670;11.936;2023-07-20T02:06:24;13.07;;;7.18;;
62475;SDS011;50739;45.670;11.936;2023-07-20T02:11:26;11.93;;;7.47;;
62475;SDS011;50739;45.670;11.936;2023-07-20T02:16:29;12.98;;;6.47;;
62475;SDS011;50739;45.670;11.936;2023-07-20T02:21:32;7.97;;;5.80;;
62475;SDS011;50739;45.670;11.936;2023-07-20T02:26:35;11.85;;;6.55;;
62475;SDS011;50739;45.670;11.936;2023-07-20T02:31:37;10.17;;;6.80;;
62475;SDS011;50739;45.670;11.936;2023-07-20T02:36:41;7.97;;;5.13;;
62475;SDS011;50739;45.670;11.936;2023-07-20T02:41:44;8.15;;;5.30;;
62475;SDS011;50739;45.670;11.936;2023-07-20T02:46:46;7.13;;;5.35;;
62475;SDS011;50739;45.670;11.936;2023-07-20T02:51:51;9.20;;;5.22;;
62475;SDS011;50739;45.670;11.936;2023-07-20T02:56:53;6.13;;;4.68;;
62475;SDS011;50739;45.670;11.936;2023-07-20T03:01:56;7.88;;;4.85;;
62475;SDS011;50739;45.670;11.936;2023-07-20T03:07:00;7.53;;;4.80;;
62475;SDS011;50739;45.670;11.936;2023-07-20T03:12:04;6.95;;;4.50;;
62475;SDS011;50739;45.670;11.936;2023-07-20T03:17:07;8.77;;;5.40;;
62475;SDS011;50739;45.670;11.936;2023-07-20T03:22:11;7.57;;;5.57;;
62475;SDS011;50739;45.670;11.936;2023-07-20T03:27:13;7.53;;;4.95;;
62475;SDS011;50739;45.670;11.936;2023-07-20T03:32:15;8.68;;;5.28;;
62475;SDS011;50739;45.670;11.936;2023-07-20T03:37:19;8.10;;;4.60;;
62475;SDS011;50739;45.670;11.936;2023-07-20T03:42:22;9.40;;;5.37;;
62475;SDS011;50739;45.670;11.936;2023-07-20T03:47:25;7.40;;;5.00;;
62475;SDS011;50739;45.670;11.936;2023-07-20T03:52:29;8.80;;;5.20;;
62475;SDS011;50739;45.670;11.936;2023-07-20T03:57:31;6.20;;;4.55;;
62475;SDS011;50739;45.670;11.936;2023-07-20T04:02:33;5.38;;;4.10;;
62475;SDS011;50739;45.670;11.936;2023-07-20T04:07:37;7.07;;;4.67;;
62475;SDS011;50739;45.670;11.936;2023-07-20T04:12:39;7.63;;;4.93;;
62475;SDS011;50739;45.670;11.936;2023-07-20T04:17:42;7.65;;;4.90;;
62475;SDS011;50739;45.670;11.936;2023-07-20T04:22:45;7.40;;;4.83;;
62475;SDS011;50739;45.670;11.936;2023-07-20T04:27:48;5.75;;;4.15;;
62475;SDS011;50739;45.670;11.936;2023-07-20T04:32:50;6.70;;;4.63;;
62475;SDS011;50739;45.670;11.936;2023-07-20T04:37:54;7.70;;;5.05;;
62475;SDS011;50739;45.670;11.936;2023-07-20T04:42:56;5.97;;;4.17;;
62475;SDS011;50739;45.670;11.936;2023-07-20T04:47:58;8.00;;;4.35;;
62475;SDS011;50739;45.670;11.936;2023-07-20T04:53:02;9.23;;;5.45;;
62475;SDS011;50739;45.670;11.936;2023-07-20T04:58:05;10.70;;;6.33;;
62475;SDS011;50739;45.670;11.936;2023-07-20T05:03:07;9.53;;;5.63;;
62475;SDS011;50739;45.670;11.936;2023-07-20T05:08:11;9.05;;;5.43;;
62475;SDS011;50739;45.670;11.936;2023-07-20T05:13:13;7.50;;;4.80;;
62475;SDS011;50739;45.670;11.936;2023-07-20T05:18:16;7.97;;;5.28;;
62475;SDS011;50739;45.670;11.936;2023-07-20T05:23:21;8.60;;;4.37;;
62475;SDS011;50739;45.670;11.936;2023-07-20T05:28:24;8.18;;;5.18;;
62475;SDS011;50739;45.670;11.936;2023-07-20T05:33:26;6.70;;;5.00;;
62475;SDS011;50739;45.670;11.936;2023-07-20T05:38:30;7.65;;;5.20;;
62475;SDS011;50739;45.670;11.936;2023-07-20T05:43:32;9.17;;;5.40;;
62475;SDS011;50739;45.670;11.936;2023-07-20T05:48:35;9.52;;;4.95;;
62475;SDS011;50739;45.670;11.936;2023-07-20T05:53:38;7.53;;;4.50;;
62475;SDS011;50739;45.670;11.936;2023-07-20T05:58:41;9.50;;;4.72;;
62475;SDS011;50739;45.670;11.936;2023-07-20T06:03:43;7.95;;;4.15;;
62475;SDS011;50739;45.670;11.936;2023-07-20T06:08:47;5.53;;;3.35;;
62475;SDS011;50739;45.670;11.936;2023-07-20T06:13:49;5.10;;;3.42;;
62475;SDS011;50739;45.670;11.936;2023-07-20T06:18:51;5.30;;;3.50;;
62475;SDS011;50739;45.670;11.936;2023-07-20T06:23:55;6.35;;;3.30;;
62475;SDS011;50739;45.670;11.936;2023-07-20T06:28:57;4.70;;;3.72;;
62475;SDS011;50739;45.670;11.936;2023-07-20T06:34:00;4.72;;;3.17;;
62475;SDS011;50739;45.670;11.936;2023-07-20T06:39:03;6.70;;;3.65;;
62475;SDS011;50739;45.670;11.936;2023-07-20T06:44:06;5.60;;;3.15;;
62475;SDS011;50739;45.670;11.936;2023-07-20T06:49:08;5.72;;;2.88;;
62475;SDS011;50739;45.670;11.936;2023-07-20T06:54:12;4.00;;;2.70;;
62475;SDS011;50739;45.670;11.936;2023-07-20T06:59:14;5.22;;;2.70;;
62475;SDS011;50739;45.670;11.936;2023-07-20T07:04:17;6.22;;;2.70;;
62475;SDS011;50739;45.670;11.936;2023-07-20T07:09:20;5.13;;;2.40;;
62475;SDS011;50739;45.670;11.936;2023-07-20T07:14:23;6.60;;;2.47;;
62475;SDS011;50739;45.670;11.936;2023-07-20T07:19:25;4.40;;;2.13;;
62475;SDS011;50739;45.670;11.936;2023-07-20T07:24:29;6.45;;;2.55;;
62475;SDS011;50739;45.670;11.936;2023-07-20T07:29:34;4.95;;;2.20;;
62475;SDS011;50739;45.670;11.936;2023-07-20T07:34:36;3.97;;;2.75;;
62475;SDS011;50739;45.670;11.936;2023-07-20T07:39:40;3.63;;;2.40;;
62475;SDS011;50739;45.670;11.936;2023-07-20T07:44:42;3.88;;;2.53;;
62475;SDS011;50739;45.670;11.936;2023-07-20T07:49:45;4.30;;;2.95;;
62475;SDS011;50739;45.670;11.936;2023-07-20T07:54:48;4.15;;;2.13;;
62475;SDS011;50739;45.670;11.936;2023-07-20T07:59:51;4.23;;;2.40;;
62475;SDS011;50739;45.670;11.936;2023-07-20T08:04:53;3.67;;;2.73;;
62475;SDS011;50739;45.670;11.936;2023-07-20T08:09:57;2.77;;;2.23;;
62475;SDS011;50739;45.670;11.936;2023-07-20T08:14:59;3.08;;;2.33;;
62475;SDS011;50739;45.670;11.936;2023-07-20T08:20:02;4.13;;;2.38;;
62475;SDS011;50739;45.670;11.936;2023-07-20T08:25:06;4.03;;;2.10;;
62475;SDS011;50739;45.670;11.936;2023-07-20T08:30:09;3.00;;;1.90;;
62475;SDS011;50739;45.670;11.936;2023-07-20T08:35:12;4.43;;;1.92;;
62475;SDS011;50739;45.670;11.936;2023-07-20T08:40:17;2.70;;;1.80;;
62475;SDS011;50739;45.670;11.936;2023-07-20T08:45:19;3.83;;;2.20;;
62475;SDS011;50739;45.670;11.936;2023-07-20T08:50:24;3.53;;;2.00;;
62475;SDS011;50739;45.670;11.936;2023-07-20T08:55:30;3.30;;;2.05;;
62475;SDS011;50739;45.670;11.936;2023-07-20T09:00:33;2.78;;;2.03;;
62475;SDS011;50739;45.670;11.936;2023-07-20T09:05:37;4.82;;;2.15;;
62475;SDS011;50739;45.670;11.936;2023-07-20T09:10:42;4.50;;;2.10;;
62475;SDS011;50739;45.670;11.936;2023-07-20T09:15:47;3.97;;;2.42;;
62475;SDS011;50739;45.670;11.936;2023-07-20T09:20:57;8.20;;;2.38;;
62475;SDS011;50739;45.670;11.936;2023-07-20T09:26:08;4.00;;;2.30;;
62475;SDS011;50739;45.670;11.936;2023-07-20T09:31:15;4.72;;;2.10;;
62475;SDS011;50739;45.670;11.936;2023-07-20T09:36:19;4.22;;;2.30;;
62475;SDS011;50739;45.670;11.936;2023-07-20T09:41:23;3.40;;;2.13;;
62475;SDS011;50739;45.670;11.936;2023-07-20T09:46:40;13.50;;;2.97;;
62475;SDS011;50739;45.670;11.936;2023-07-20T09:51:43;6.50;;;2.80;;
62475;SDS011;50739;45.670;11.936;2023-07-20T09:56:47;3.80;;;1.98;;
62475;SDS011;50739;45.670;11.936;2023-07-20T10:01:52;2.63;;;2.10;;
62475;SDS011;50739;45.670;11.936;2023-07-20T10:06:57;4.65;;;2.10;;
62475;SDS011;50739;45.670;11.936;2023-07-20T10:12:06;4.50;;;1.90;;
62475;SDS011;50739;45.670;11.936;2023-07-20T10:17:11;3.20;;;1.70;;
62475;SDS011;50739;45.670;11.936;2023-07-20T10:22:16;2.90;;;1.93;;
62475;SDS011;50739;45.670;11.936;2023-07-20T10:27:23;4.72;;;1.80;;
62475;SDS011;50739;45.670;11.936;2023-07-20T10:32:26;3.67;;;1.92;;
62475;SDS011;50739;45.670;11.936;2023-07-20T10:37:51;4.00;;;2.00;;
62475;SDS011;50739;45.670;11.936;2023-07-20T10:42:59;2.22;;;1.80;;
62475;SDS011;50739;45.670;11.936;2023-07-20T10:48:03;3.17;;;1.80;;
62475;SDS011;50739;45.670;11.936;2023-07-20T10:53:16;4.87;;;2.40;;
62475;SDS011;50739;45.670;11.936;2023-07-20T10:58:21;1.92;;;1.67;;
62475;SDS011;50739;45.670;11.936;2023-07-20T11:03:29;3.43;;;1.50;;
62475;SDS011;50739;45.670;11.936;2023-07-20T11:08:38;2.50;;;1.60;;
62475;SDS011;50739;45.670;11.936;2023-07-20T11:13:54;2.72;;;1.67;;
62475;SDS011;50739;45.670;11.936;2023-07-20T11:18:57;2.27;;;1.67;;
62475;SDS011;50739;45.670;11.936;2023-07-20T11:24:02;2.72;;;1.70;;
62475;SDS011;50739;45.670;11.936;2023-07-20T11:29:07;3.47;;;1.90;;
62475;SDS011;50739;45.670;11.936;2023-07-20T11:34:10;3.38;;;2.03;;
62475;SDS011;50739;45.670;11.936;2023-07-20T11:39:14;2.50;;;1.77;;
62475;SDS011;50739;45.670;11.936;2023-07-20T11:44:22;3.25;;;1.70;;
62475;SDS011;50739;45.670;11.936;2023-07-20T11:49:28;3.03;;;1.90;;
62475;SDS011;50739;45.670;11.936;2023-07-20T11:54:30;6.97;;;2.22;;
62475;SDS011;50739;45.670;11.936;2023-07-20T11:59:35;2.50;;;1.73;;
62475;SDS011;50739;45.670;11.936;2023-07-20T12:04:38;2.63;;;1.73;;
62475;SDS011;50739;45.670;11.936;2023-07-20T12:09:41;3.90;;;1.90;;
62475;SDS011;50739;45.670;11.936;2023-07-20T12:14:44;5.70;;;2.10;;
62475;SDS011;50739;45.670;11.936;2023-07-20T12:19:47;4.38;;;2.00;;
62475;SDS011;50739;45.670;11.936;2023-07-20T12:24:52;2.77;;;2.40;;
62475;SDS011;50739;45.670;11.936;2023-07-20T12:29:55;3.75;;;2.03;;
62475;SDS011;50739;45.670;11.936;2023-07-20T12:34:58;2.67;;;2.00;;
62475;SDS011;50739;45.670;11.936;2023-07-20T12:40:01;3.47;;;2.00;;
62475;SDS011;50739;45.670;11.936;2023-07-20T12:45:06;2.73;;;1.83;;
62475;SDS011;50739;45.670;11.936;2023-07-20T12:50:09;3.53;;;1.95;;
62475;SDS011;50739;45.670;11.936;2023-07-20T12:55:11;2.47;;;1.80;;
62475;SDS011;50739;45.670;11.936;2023-07-20T13:00:16;3.28;;;1.90;;
62475;SDS011;50739;45.670;11.936;2023-07-20T13:05:19;1.98;;;1.60;;
62475;SDS011;50739;45.670;11.936;2023-07-20T13:10:21;4.87;;;2.07;;
62475;SDS011;50739;45.670;11.936;2023-07-20T13:15:28;3.50;;;1.80;;
62475;SDS011;50739;45.670;11.936;2023-07-20T13:20:32;3.78;;;2.08;;
62475;SDS011;50739;45.670;11.936;2023-07-20T13:25:34;4.03;;;2.20;;
62475;SDS011;50739;45.670;11.936;2023-07-20T13:30:38;6.25;;;2.25;;
62475;SDS011;50739;45.670;11.936;2023-07-20T13:35:41;5.55;;;2.03;;
62475;SDS011;50739;45.670;11.936;2023-07-20T13:40:43;3.70;;;2.40;;
62475;SDS011;50739;45.670;11.936;2023-07-20T13:45:47;3.60;;;2.00;;
62475;SDS011;50739;45.670;11.936;2023-07-20T13:50:49;3.10;;;1.90;;
62475;SDS011;50739;45.670;11.936;2023-07-20T13:55:52;2.65;;;1.83;;
62475;SDS011;50739;45.670;11.936;2023-07-20T14:00:55;3.40;;;1.90;;
62475;SDS011;50739;45.670;11.936;2023-07-20T14:05:58;3.20;;;1.97;;
62475;SDS011;50739;45.670;11.936;2023-07-20T14:11:00;6.05;;;2.20;;
62475;SDS011;50739;45.670;11.936;2023-07-20T14:16:04;4.18;;;1.80;;
62475;SDS011;50739;45.670;11.936;2023-07-20T14:21:08;4.80;;;1.87;;
62475;SDS011;50739;45.670;11.936;2023-07-20T14:26:10;3.72;;;2.20;;
62475;SDS011;50739;45.670;11.936;2023-07-20T14:31:13;5.75;;;1.95;;
62475;SDS011;50739;45.670;11.936;2023-07-20T14:36:16;4.18;;;1.83;;
62475;SDS011;50739;45.670;11.936;2023-07-20T14:41:18;3.30;;;1.90;;
62475;SDS011;50739;45.670;11.936;2023-07-20T14:46:22;2.97;;;1.93;;
62475;SDS011;50739;45.670;11.936;2023-07-20T14:51:25;3.03;;;1.70;;
62475;SDS011;50739;45.670;11.936;2023-07-20T14:56:32;3.83;;;1.80;;
62475;SDS011;50739;45.670;11.936;2023-07-20T15:01:36;3.90;;;1.80;;
62475;SDS011;50739;45.670;11.936;2023-07-20T15:06:38;3.05;;;1.75;;
62475;SDS011;50739;45.670;11.936;2023-07-20T15:11:40;3.00;;;1.70;;
62475;SDS011;50739;45.670;11.936;2023-07-20T15:16:45;3.77;;;1.70;;
62475;SDS011;50739;45.670;11.936;2023-07-20T15:21:48;5.20;;;1.80;;
62475;SDS011;50739;45.670;11.936;2023-07-20T15:26:50;3.40;;;1.70;;
62475;SDS011;50739;45.670;11.936;2023-07-20T15:31:54;3.40;;;2.20;;
62475;SDS011;50739;45.670;11.936;2023-07-20T15:36:56;3.47;;;1.55;;
62475;SDS011;50739;45.670;11.936;2023-07-20T15:41:58;2.45;;;1.80;;
62475;SDS011;50739;45.670;11.936;2023-07-20T15:47:02;2.65;;;2.08;;
62475;SDS011;50739;45.670;11.936;2023-07-20T15:52:06;3.70;;;1.90;;
62475;SDS011;50739;45.670;11.936;2023-07-20T15:57:09;3.83;;;1.90;;
62475;SDS011;50739;45.670;11.936;2023-07-20T16:02:12;5.05;;;2.08;;
62475;SDS011;50739;45.670;11.936;2023-07-20T16:07:15;3.87;;;1.90;;
62475;SDS011;50739;45.670;11.936;2023-07-20T16:12:17;2.83;;;2.10;;
62475;SDS011;50739;45.670;11.936;2023-07-20T16:17:27;2.85;;;1.90;;
62475;SDS011;50739;45.670;11.936;2023-07-20T16:22:29;3.50;;;2.20;;
62475;SDS011;50739;45.670;11.936;2023-07-20T16:27:32;3.73;;;2.17;;
62475;SDS011;50739;45.670;11.936;2023-07-20T16:32:35;2.90;;;1.80;;
62475;SDS011;50739;45.670;11.936;2023-07-20T16:37:38;2.97;;;1.93;;
62475;SDS011;50739;45.670;11.936;2023-07-20T16:42:41;4.15;;;2.05;;
62475;SDS011;50739;45.670;11.936;2023-07-20T16:47:44;3.28;;;1.98;;
62475;SDS011;50739;45.670;11.936;2023-07-20T16:52:47;2.70;;;1.77;;
62475;SDS011;50739;45.670;11.936;2023-07-20T16:57:50;3.15;;;1.73;;
62475;SDS011;50739;45.670;11.936;2023-07-20T17:02:53;5.37;;;2.00;;
62475;SDS011;50739;45.670;11.936;2023-07-20T17:07:56;2.87;;;1.77;;
62475;SDS011;50739;45.670;11.936;2023-07-20T17:12:59;3.45;;;2.00;;
62475;SDS011;50739;45.670;11.936;2023-07-20T17:18:03;5.18;;;1.90;;
62475;SDS011;50739;45.670;11.936;2023-07-20T17:23:06;3.80;;;2.00;;
62475;SDS011;50739;45.670;11.936;2023-07-20T17:28:08;4.00;;;2.00;;
62475;SDS011;50739;45.670;11.936;2023-07-20T17:33:12;3.58;;;1.98;;
62475;SDS011;50739;45.670;11.936;2023-07-20T17:38:16;3.95;;;1.92;;
62475;SDS011;50739;45.670;11.936;2023-07-20T17:43:18;2.27;;;2.03;;
62475;SDS011;50739;45.670;11.936;2023-07-20T17:48:22;3.40;;;1.83;;
62475;SDS011;50739;45.670;11.936;2023-07-20T17:53:24;4.30;;;1.90;;
62475;SDS011;50739;45.670;11.936;2023-07-20T17:58:26;3.17;;;1.95;;
62475;SDS011;50739;45.670;11.936;2023-07-20T18:03:30;3.30;;;1.88;;
62475;SDS011;50739;45.670;11.936;2023-07-20T18:08:33;3.90;;;1.73;;
62475;SDS011;50739;45.670;11.936;2023-07-20T18:13:35;3.05;;;1.70;;
62475;SDS011;50739;45.670;11.936;2023-07-20T18:18:39;3.10;;;2.33;;
62475;SDS011;50739;45.670;11.936;2023-07-20T18:23:41;4.68;;;2.13;;
62475;SDS011;50739;45.670;11.936;2023-07-20T18:28:43;6.60;;;2.23;;
62475;SDS011;50739;45.670;11.936;2023-07-20T18:33:47;2.67;;;2.00;;
62475;SDS011;50739;45.670;11.936;2023-07-20T18:38:49;3.65;;;1.90;;
62475;SDS011;50739;45.670;11.936;2023-07-20T18:43:52;4.35;;;2.33;;
62475;SDS011;50739;45.670;11.936;2023-07-20T18:48:55;5.15;;;2.80;;
62475;SDS011;50739;45.670;11.936;2023-07-20T18:53:58;3.80;;;2.30;;
62475;SDS011;50739;45.670;11.936;2023-07-20T18:59:00;3.67;;;2.38;;
62475;SDS011;50739;45.670;11.936;2023-07-20T19:04:04;3.60;;;2.30;;
62475;SDS011;50739;45.670;11.936;2023-07-20T19:09:07;4.53;;;2.80;;
62475;SDS011;50739;45.670;11.936;2023-07-20T19:14:09;4.35;;;2.30;;
62475;SDS011;50739;45.670;11.936;2023-07-20T19:19:13;3.72;;;2.20;;
62475;SDS011;50739;45.670;11.936;2023-07-20T19:24:15;4.40;;;2.23;;
62475;SDS011;50739;45.670;11.936;2023-07-20T19:29:17;4.38;;;2.30;;
62475;SDS011;50739;45.670;11.936;2023-07-20T19:34:21;4.45;;;2.60;;
62475;SDS011;50739;45.670;11.936;2023-07-20T19:39:24;4.28;;;2.55;;
62475;SDS011;50739;45.670;11.936;2023-07-20T19:44:27;5.65;;;2.92;;
62475;SDS011;50739;45.670;11.936;2023-07-20T19:49:30;18.50;;;9.32;;
62475;SDS011;50739;45.670;11.936;2023-07-20T19:54:33;10.63;;;5.73;;
62475;SDS011;50739;45.670;11.936;2023-07-20T19:59:35;3.97;;;3.05;;
62475;SDS011;50739;45.670;11.936;2023-07-20T20:04:39;4.05;;;2.90;;
62475;SDS011;50739;45.670;11.936;2023-07-20T20:09:41;3.97;;;3.00;;
62475;SDS011;50739;45.670;11.936;2023-07-20T20:14:44;6.80;;;2.90;;
62475;SDS011;50739;45.670;11.936;2023-07-20T20:19:47;5.88;;;2.60;;
62475;SDS011;50739;45.670;11.936;2023-07-20T20:24:51;3.72;;;2.83;;
62475;SDS011;50739;45.670;11.936;2023-07-20T20:29:53;5.57;;;2.85;;
62475;SDS011;50739;45.670;11.936;2023-07-20T20:34:58;5.40;;;2.80;;
62475;SDS011;50739;45.670;11.936;2023-07-20T20:40:00;3.92;;;2.88;;
62475;SDS011;50739;45.670;11.936;2023-07-20T20:45:03;6.05;;;2.88;;
62475;SDS011;50739;45.670;11.936;2023-07-20T20:50:07;4.30;;;2.70;;
62475;SDS011;50739;45.670;11.936;2023-07-20T20:55:11;3.30;;;2.47;;
62475;SDS011;50739;45.670;11.936;2023-07-20T21:00:13;7.80;;;2.70;;
62475;SDS011;50739;45.670;11.936;2023-07-20T21:05:17;4.70;;;2.80;;
62475;SDS011;50739;45.670;11.936;2023-07-20T21:10:20;5.20;;;2.90;;
62475;SDS011;50739;45.670;11.936;2023-07-20T21:15:22;5.43;;;2.70;;
62475;SDS011;50739;45.670;11.936;2023-07-20T21:20:26;5.35;;;2.90;;
62475;SDS011;50739;45.670;11.936;2023-07-20T21:25:31;5.83;;;2.60;;
62475;SDS011;50739;45.670;11.936;2023-07-20T21:30:33;5.53;;;2.60;;
62475;SDS011;50739;45.670;11.936;2023-07-20T21:35:37;6.57;;;2.67;;
62475;SDS011;50739;45.670;11.936;2023-07-20T21:40:40;3.50;;;2.58;;
62475;SDS011;50739;45.670;11.936;2023-07-20T21:45:43;5.80;;;2.90;;
62475;SDS011;50739;45.670;11.936;2023-07-20T21:50:47;4.20;;;2.80;;
62475;SDS011;50739;45.670;11.936;2023-07-20T21:55:50;4.43;;;3.05;;
62475;SDS011;50739;45.670;11.936;2023-07-20T22:00:52;5.85;;;3.00;;
62475;SDS011;50739;45.670;11.936;2023-07-20T22:05:57;5.15;;;2.80;;
62475;SDS011;50739;45.670;11.936;2023-07-20T22:11:04;5.32;;;3.13;;
62475;SDS011;50739;45.670;11.936;2023-07-20T22:16:07;5.83;;;3.50;;
62475;SDS011;50739;45.670;11.936;2023-07-20T22:21:13;6.45;;;3.78;;
62475;SDS011;50739;45.670;11.936;2023-07-20T22:26:15;6.30;;;3.90;;
62475;SDS011;50739;45.670;11.936;2023-07-20T22:31:18;4.97;;;3.50;;
62475;SDS011;50739;45.670;11.936;2023-07-20T22:36:22;6.10;;;3.67;;
62475;SDS011;50739;45.670;11.936;2023-07-20T22:41:24;4.95;;;3.60;;
62475;SDS011;50739;45.670;11.936;2023-07-20T22:46:26;6.97;;;3.97;;
62475;SDS011;50739;45.670;11.936;2023-07-20T22:51:30;6.88;;;3.67;;
62475;SDS011;50739;45.670;11.936;2023-07-20T22:56:32;6.13;;;3.90;;
62475;SDS011;50739;45.670;11.936;2023-07-20T23:01:35;8.60;;;3.88;;
62475;SDS011;50739;45.670;11.936;2023-07-20T23:06:39;6.43;;;4.22;;
62475;SDS011;50739;45.670;11.936;2023-07-20T23:11:42;6.15;;;4.40;;
62475;SDS011;50739;45.670;11.936;2023-07-20T23:16:44;7.10;;;4.23;;
62475;SDS011;50739;45.670;11.936;2023-07-20T23:21:48;9.03;;;4.70;;
62475;SDS011;50739;45.670;11.936;2023-07-20T23:26:50;6.25;;;4.32;;
62475;SDS011;50739;45.670;11.936;2023-07-20T23:31:54;6.55;;;4.38;;
62475;SDS011;50739;45.670;11.936;2023-07-20T23:36:57;7.03;;;4.13;;
62475;SDS011;50739;45.670;11.936;2023-07-20T23:42:00;5.07;;;3.72;;
62475;SDS011;50739;45.670;11.936;2023-07-20T23:47:04;4.93;;;3.50;;
62475;SDS011;50739;45.670;11.936;2023-07-20T23:52:08;6.07;;;3.90;;
62475;SDS011;50739;45.670;11.936;2023-07-20T23:57:11;6.15;;;3.47;;
